createdAt,value
2023-05-10T04:13:13.377Z,10.44
2023-05-10T04:16:23.214Z,10.47
2023-05-10T04:19:34.948Z,10.59
2023-05-10T04:22:43.288Z,10.75
2023-05-10T04:25:51.027Z,10.83
2023-05-10T04:28:59.663Z,10.93
2023-05-10T04:32:06.962Z,10.99
2023-05-10T04:35:17.107Z,11.07
2023-05-10T04:38:24.683Z,11.12
2023-05-10T04:41:33.480Z,11.05
2023-05-10T04:44:40.121Z,11.04
2023-05-10T04:47:48.917Z,10.98
2023-05-10T04:50:56.621Z,11.03
2023-05-10T04:54:06.594Z,11.01
2023-05-10T04:57:15.779Z,11.09
2023-05-10T05:00:21.707Z,11.23
2023-05-10T05:03:27.063Z,11.43
2023-05-10T05:06:33.415Z,11.53
2023-05-10T05:09:40.155Z,11.53
2023-05-10T05:12:43.748Z,11.62
2023-05-10T05:15:49.737Z,11.82
2023-05-10T05:18:55.870Z,12.13
2023-05-10T05:22:00.984Z,12.37
2023-05-10T05:25:08.689Z,12.56
2023-05-10T05:28:15.877Z,12.22
2023-05-10T05:31:22.389Z,12.23
2023-05-10T05:34:28.213Z,12.19
2023-05-10T05:37:37.205Z,12.19
2023-05-10T05:40:46.442Z,12.69
2023-05-10T05:43:53.031Z,13.14
2023-05-10T05:46:59.552Z,13.92
2023-05-10T05:50:06.768Z,14.44
2023-05-10T05:53:14.958Z,14.42
2023-05-10T05:56:26.493Z,15.05
2023-05-10T05:59:32.099Z,14.85
2023-05-10T06:02:41.510Z,14.66
2023-05-10T06:05:48.669Z,14.72
2023-05-10T06:08:57.070Z,15.05
2023-05-10T06:12:05.345Z,15.59
2023-05-10T06:15:13.292Z,16.33
2023-05-10T06:18:21.146Z,16.60
2023-05-10T06:21:29.403Z,17.28
2023-05-10T06:24:40.446Z,17.22
2023-05-10T06:27:51.150Z,18.03
2023-05-10T06:31:02.601Z,16.83
2023-05-10T06:34:10.137Z,16.37
2023-05-10T06:37:17.520Z,16.01
2023-05-10T06:40:24.359Z,15.31
2023-05-10T06:43:32.611Z,15.24
2023-05-10T06:46:40.005Z,15.17
2023-05-10T06:49:43.240Z,15.71
2023-05-10T06:52:47.539Z,15.38
2023-05-10T06:56:15.628Z,15.43
2023-05-10T06:59:20.891Z,16.51
2023-05-10T07:02:28.718Z,16.94
2023-05-10T07:05:35.819Z,16.10
2023-05-10T07:08:44.444Z,15.65
2023-05-10T07:11:50.467Z,15.70
2023-05-10T07:14:56.851Z,16.21
2023-05-10T07:18:02.439Z,16.02
2023-05-10T07:21:10.041Z,16.44
2023-05-10T07:24:17.543Z,16.34
2023-05-10T07:27:22.333Z,16.11
2023-05-10T07:30:27.373Z,16.40
2023-05-10T07:33:34.637Z,16.36
2023-05-10T07:36:39.936Z,16.68
2023-05-10T07:39:44.684Z,16.91
2023-05-10T07:42:50.964Z,16.88
2023-05-10T07:45:59.638Z,17.75
2023-05-10T07:49:06.681Z,18.12
2023-05-10T07:52:16.138Z,17.77
2023-05-10T07:55:24.602Z,17.96
2023-05-10T07:58:32.961Z,17.83
2023-05-10T08:01:40.078Z,17.76
2023-05-10T08:04:45.356Z,18.39
2023-05-10T08:07:54.123Z,18.04
2023-05-10T08:10:59.807Z,19.14
2023-05-10T08:14:05.120Z,18.79
2023-05-10T08:17:11.970Z,18.82
2023-05-10T08:20:20.407Z,18.90
2023-05-10T08:23:25.159Z,18.47
2023-05-10T08:26:31.864Z,18.16
2023-05-10T08:29:49.005Z,17.90
2023-05-10T08:32:54.353Z,19.37
2023-05-10T08:35:58.822Z,18.40
2023-05-10T08:39:03.451Z,18.26
2023-05-10T08:42:09.764Z,17.55
2023-05-10T08:45:15.597Z,17.85
2023-05-10T08:48:24.490Z,18.51
2023-05-10T08:51:31.135Z,18.91
2023-05-10T08:54:35.906Z,19.08
2023-05-10T08:57:42.313Z,19.55
2023-05-10T09:00:49.243Z,19.30
2023-05-10T09:03:55.515Z,20.42
2023-05-10T09:07:00.639Z,20.77
2023-05-10T09:10:08.345Z,21.75
2023-05-10T09:13:20.264Z,21.27
2023-05-10T09:16:25.588Z,21.73
2023-05-10T09:19:29.888Z,22.23
2023-05-10T09:22:35.797Z,21.94
2023-05-10T09:25:43.588Z,20.99
2023-05-10T09:28:59.424Z,21.42
2023-05-10T09:32:05.687Z,22.17
2023-05-10T09:35:19.961Z,22.65
2023-05-10T09:38:26.593Z,23.36
2023-05-10T09:41:36.115Z,23.96
2023-05-10T09:44:46.480Z,23.26
2023-05-10T09:47:52.943Z,24.03
2023-05-10T09:51:00.542Z,24.62
2023-05-10T09:54:16.358Z,24.33
2023-05-10T09:57:23.453Z,22.72
2023-05-10T10:00:29.879Z,21.52
2023-05-10T10:03:34.800Z,22.62
2023-05-10T10:06:40.600Z,23.01
2023-05-10T10:09:46.483Z,22.38
2023-05-10T10:12:51.325Z,22.74
2023-05-10T10:15:56.548Z,23.69
2023-05-10T10:19:03.149Z,23.61
2023-05-10T10:22:09.328Z,21.60
2023-05-10T10:25:16.689Z,21.86
2023-05-10T10:28:34.990Z,21.87
2023-05-10T10:31:50.762Z,23.65
2023-05-10T10:34:58.120Z,27.97
2023-05-10T10:38:02.556Z,26.92
2023-05-10T10:41:14.433Z,23.61
2023-05-10T10:44:35.710Z,23.21
2023-05-10T10:47:40.480Z,21.23
2023-05-10T10:50:47.518Z,21.21
2023-05-10T10:53:50.624Z,21.44
2023-05-10T10:57:16.238Z,20.98
2023-05-10T11:00:24.877Z,20.46
2023-05-10T11:03:29.978Z,20.79
2023-05-10T11:06:35.881Z,21.00
2023-05-10T11:09:41.594Z,23.14
2023-05-10T11:13:13.559Z,22.84
2023-05-10T11:16:31.243Z,21.96
2023-05-10T11:19:35.978Z,21.26
2023-05-10T11:23:11.286Z,20.78
2023-05-10T11:26:15.075Z,20.47
2023-05-10T11:29:18.522Z,20.35
2023-05-10T11:32:24.128Z,21.21
2023-05-10T11:35:31.027Z,21.57
2023-05-10T11:38:36.194Z,21.06
2023-05-10T11:41:43.034Z,20.85
2023-05-10T11:44:50.686Z,20.45
2023-05-10T11:48:00.402Z,20.83
2023-05-10T11:51:05.375Z,20.06
2023-05-10T11:54:12.759Z,19.78
2023-05-10T11:57:17.328Z,19.42
2023-05-10T12:00:23.327Z,19.26
2023-05-10T12:03:29.814Z,18.66
2023-05-10T12:06:42.256Z,18.63
2023-05-10T12:10:09.528Z,18.34
2023-05-10T12:13:17.066Z,18.55
2023-05-10T12:16:25.333Z,18.56
2023-05-10T12:19:29.463Z,18.98
2023-05-10T12:22:36.782Z,19.12
2023-05-10T12:25:42.764Z,18.80
2023-05-10T12:28:47.455Z,19.07
2023-05-10T12:32:01.068Z,19.29
2023-05-10T12:35:05.461Z,19.36
2023-05-10T12:38:31.951Z,19.32
2023-05-10T12:41:37.886Z,19.34
2023-05-10T12:44:42.481Z,19.12
2023-05-10T12:47:47.066Z,19.05
2023-05-10T12:50:52.823Z,19.42
2023-05-10T12:54:00.119Z,19.22
2023-05-10T12:57:05.712Z,19.31
2023-05-10T13:00:13.056Z,18.93
2023-05-10T13:03:18.410Z,18.83
2023-05-10T13:06:25.726Z,19.13
2023-05-10T13:09:32.409Z,19.24
2023-05-10T13:12:38.520Z,18.91
2023-05-10T13:15:45.076Z,18.70
2023-05-10T13:18:53.750Z,18.78
2023-05-10T13:22:01.416Z,18.93
2023-05-10T13:25:08.547Z,18.76
2023-05-10T13:28:18.561Z,18.42
2023-05-10T13:31:28.215Z,18.36
2023-05-10T13:34:36.169Z,18.94
2023-05-10T13:37:45.262Z,19.13
2023-05-10T13:40:55.390Z,19.18
2023-05-10T13:44:06.147Z,18.85
2023-05-10T13:47:15.809Z,19.51
2023-05-10T13:50:24.799Z,19.64
2023-05-10T13:53:33.640Z,19.27
2023-05-10T13:56:41.208Z,19.12
2023-05-10T13:59:47.752Z,19.31
2023-05-10T14:02:54.853Z,19.22
2023-05-10T14:06:01.323Z,18.78
2023-05-10T14:09:06.986Z,19.05
2023-05-10T14:12:14.823Z,19.76
2023-05-10T14:15:22.673Z,19.67
2023-05-10T14:18:29.049Z,19.69
2023-05-10T14:21:36.477Z,19.51
2023-05-10T14:24:50.170Z,19.82
2023-05-10T14:27:56.498Z,20.23
2023-05-10T14:31:04.300Z,19.89
2023-05-10T14:34:22.262Z,20.05
2023-05-10T14:37:33.088Z,20.08
2023-05-10T14:40:42.559Z,20.02
2023-05-10T14:43:51.276Z,19.83
2023-05-10T14:47:00.920Z,19.74
2023-05-10T14:50:07.810Z,19.42
2023-05-10T14:53:13.837Z,19.03
2023-05-10T14:56:24.583Z,18.96
2023-05-10T14:59:33.921Z,18.72
2023-05-10T15:02:40.813Z,18.50
2023-05-10T15:05:47.154Z,18.19
2023-05-10T15:08:54.308Z,18.11
2023-05-10T15:12:03.322Z,18.08
2023-05-10T15:15:12.667Z,17.95
2023-05-10T15:22:06.203Z,17.76
2023-05-10T15:25:15.530Z,17.51
2023-05-10T15:28:24.639Z,17.51
2023-05-10T15:35:13.017Z,17.55
